sensor_id;sensor_type;location;lat;lon;timestamp;temperature;humidity
26262;DHT22;13988;52.446;13.280;2022-08-04T00:01:36;21.60;99.90
26262;DHT22;13988;52.446;13.280;2022-08-04T00:04:20;22.10;99.90
26262;DHT22;13988;52.446;13.280;2022-08-04T00:10:03;21.70;99.90
26262;DHT22;13988;52.446;13.280;2022-08-04T00:12:31;22.10;99.90
26262;DHT22;13988;52.446;13.280;2022-08-04T00:15:02;22.10;99.90
26262;DHT22;13988;52.446;13.280;2022-08-04T00:17:40;21.90;99.90
26262;DHT22;13988;52.446;13.280;2022-08-04T00:20:08;22.00;99.90
26262;DHT22;13988;52.446;13.280;2022-08-04T00:22:35;21.80;99.90
26262;DHT22;13988;52.446;13.280;2022-08-04T00:25:05;22.00;99.90
26262;DHT22;13988;52.446;13.280;2022-08-04T00:27:31;21.90;99.90
26262;DHT22;13988;52.446;13.280;2022-08-04T00:30:00;21.90;99.90
26262;DHT22;13988;52.446;13.280;2022-08-04T00:32:27;21.80;99.90
26262;DHT22;13988;52.446;13.280;2022-08-04T00:34:54;21.60;99.90
26262;DHT22;13988;52.446;13.280;2022-08-04T00:37:22;21.60;99.90
26262;DHT22;13988;52.446;13.280;2022-08-04T00:39:53;21.70;99.90
26262;DHT22;13988;52.446;13.280;2022-08-04T00:42:28;21.80;99.90
26262;DHT22;13988;52.446;13.280;2022-08-04T00:48:00;21.70;99.90
26262;DHT22;13988;52.446;13.280;2022-08-04T00:50:43;21.60;99.90
26262;DHT22;13988;52.446;13.280;2022-08-04T00:56:03;21.60;99.90
26262;DHT22;13988;52.446;13.280;2022-08-04T01:01:06;21.20;99.90
26262;DHT22;13988;52.446;13.280;2022-08-04T01:03:58;21.40;99.90
26262;DHT22;13988;52.446;13.280;2022-08-04T01:06:57;21.30;99.90
26262;DHT22;13988;52.446;13.280;2022-08-04T01:15:24;21.50;99.90
26262;DHT22;13988;52.446;13.280;2022-08-04T01:18:03;21.30;99.90
26262;DHT22;13988;52.446;13.280;2022-08-04T01:20:33;21.20;99.90
26262;DHT22;13988;52.446;13.280;2022-08-04T01:23:24;21.20;99.90
26262;DHT22;13988;52.446;13.280;2022-08-04T01:29:10;21.40;99.90
26262;DHT22;13988;52.446;13.280;2022-08-04T01:32:06;21.40;99.90
26262;DHT22;13988;52.446;13.280;2022-08-04T01:34:41;21.20;99.90
26262;DHT22;13988;52.446;13.280;2022-08-04T01:37:12;21.20;99.90
26262;DHT22;13988;52.446;13.280;2022-08-04T01:39:49;21.20;99.90
26262;DHT22;13988;52.446;13.280;2022-08-04T01:42:17;21.20;99.90
26262;DHT22;13988;52.446;13.280;2022-08-04T01:44:46;21.20;99.90
26262;DHT22;13988;52.446;13.280;2022-08-04T01:47:13;21.00;99.90
26262;DHT22;13988;52.446;13.280;2022-08-04T01:49:44;21.00;99.90
26262;DHT22;13988;52.446;13.280;2022-08-04T01:52:16;21.10;99.90
26262;DHT22;13988;52.446;13.280;2022-08-04T01:54:43;21.10;99.90
26262;DHT22;13988;52.446;13.280;2022-08-04T01:57:10;21.40;99.90
26262;DHT22;13988;52.446;13.280;2022-08-04T01:59:37;21.30;99.90
26262;DHT22;13988;52.446;13.280;2022-08-04T02:02:04;21.30;99.90
26262;DHT22;13988;52.446;13.280;2022-08-04T02:04:34;21.00;99.90
26262;DHT22;13988;52.446;13.280;2022-08-04T02:10:29;20.90;99.90
26262;DHT22;13988;52.446;13.280;2022-08-04T02:15:42;20.80;99.90
26262;DHT22;13988;52.446;13.280;2022-08-04T02:18:17;20.90;99.90
26262;DHT22;13988;52.446;13.280;2022-08-04T02:20:47;20.90;99.90
26262;DHT22;13988;52.446;13.280;2022-08-04T02:23:15;20.60;99.90
26262;DHT22;13988;52.446;13.280;2022-08-04T02:25:55;20.60;99.90
26262;DHT22;13988;52.446;13.280;2022-08-04T02:31:21;20.30;99.90
26262;DHT22;13988;52.446;13.280;2022-08-04T02:34:10;20.30;99.90
26262;DHT22;13988;52.446;13.280;2022-08-04T02:36:40;20.30;99.90
26262;DHT22;13988;52.446;13.280;2022-08-04T02:39:10;20.30;99.90
26262;DHT22;13988;52.446;13.280;2022-08-04T02:41:37;20.30;99.90
26262;DHT22;13988;52.446;13.280;2022-08-04T02:44:08;20.20;99.90
26262;DHT22;13988;52.446;13.280;2022-08-04T02:46:40;20.20;99.90
26262;DHT22;13988;52.446;13.280;2022-08-04T02:49:08;20.20;99.90
26262;DHT22;13988;52.446;13.280;2022-08-04T02:51:41;20.20;99.90
26262;DHT22;13988;52.446;13.280;2022-08-04T02:54:07;20.10;99.90
26262;DHT22;13988;52.446;13.280;2022-08-04T02:56:36;20.10;99.90
26262;DHT22;13988;52.446;13.280;2022-08-04T02:59:06;20.20;99.90
26262;DHT22;13988;52.446;13.280;2022-08-04T03:01:35;20.20;99.90
26262;DHT22;13988;52.446;13.280;2022-08-04T03:26:54;19.70;99.90
26262;DHT22;13988;52.446;13.280;2022-08-04T03:29:52;19.70;99.90
26262;DHT22;13988;52.446;13.280;2022-08-04T03:32:52;19.50;99.90
26262;DHT22;13988;52.446;13.280;2022-08-04T03:35:38;19.60;99.90
26262;DHT22;13988;52.446;13.280;2022-08-04T03:46:59;19.60;99.90
26262;DHT22;13988;52.446;13.280;2022-08-04T03:49:55;19.70;99.90
26262;DHT22;13988;52.446;13.280;2022-08-04T03:59:03;19.60;99.90
26262;DHT22;13988;52.446;13.280;2022-08-04T04:04:59;19.60;99.90
26262;DHT22;13988;52.446;13.280;2022-08-04T04:10:39;19.80;99.90
26262;DHT22;13988;52.446;13.280;2022-08-04T04:19:46;19.80;99.90
26262;DHT22;13988;52.446;13.280;2022-08-04T04:25:30;19.80;99.90
26262;DHT22;13988;52.446;13.280;2022-08-04T04:31:10;19.80;99.90
26262;DHT22;13988;52.446;13.280;2022-08-04T04:34:07;19.60;99.90
26262;DHT22;13988;52.446;13.280;2022-08-04T04:42:58;20.10;99.90
26262;DHT22;13988;52.446;13.280;2022-08-04T04:45:26;20.10;99.90
26262;DHT22;13988;52.446;13.280;2022-08-04T04:48:08;20.10;99.90
26262;DHT22;13988;52.446;13.280;2022-08-04T04:50:55;20.10;99.90
26262;DHT22;13988;52.446;13.280;2022-08-04T04:53:35;20.20;99.90
26262;DHT22;13988;52.446;13.280;2022-08-04T04:56:10;20.30;99.90
26262;DHT22;13988;52.446;13.280;2022-08-04T04:58:37;20.40;99.90
26262;DHT22;13988;52.446;13.280;2022-08-04T05:13:41;20.60;99.90
26262;DHT22;13988;52.446;13.280;2022-08-04T05:17:09;20.60;99.90
26262;DHT22;13988;52.446;13.280;2022-08-04T05:19:43;20.70;99.90
26262;DHT22;13988;52.446;13.280;2022-08-04T05:24:59;20.90;99.90
26262;DHT22;13988;52.446;13.280;2022-08-04T05:27:37;21.00;99.90
26262;DHT22;13988;52.446;13.280;2022-08-04T05:30:04;21.00;99.90
26262;DHT22;13988;52.446;13.280;2022-08-04T05:32:47;21.10;99.90
26262;DHT22;13988;52.446;13.280;2022-08-04T05:35:30;21.20;99.90
26262;DHT22;13988;52.446;13.280;2022-08-04T05:38:00;21.30;99.90
26262;DHT22;13988;52.446;13.280;2022-08-04T05:40:27;21.50;99.90
26262;DHT22;13988;52.446;13.280;2022-08-04T05:42:55;21.60;99.90
26262;DHT22;13988;52.446;13.280;2022-08-04T05:45:22;21.80;99.90
26262;DHT22;13988;52.446;13.280;2022-08-04T05:47:51;21.80;99.90
26262;DHT22;13988;52.446;13.280;2022-08-04T05:50:19;21.90;99.90
26262;DHT22;13988;52.446;13.280;2022-08-04T05:52:45;22.00;99.90
26262;DHT22;13988;52.446;13.280;2022-08-04T05:55:16;22.00;99.90
26262;DHT22;13988;52.446;13.280;2022-08-04T05:57:42;22.20;99.90
26262;DHT22;13988;52.446;13.280;2022-08-04T06:00:10;22.50;99.90
26262;DHT22;13988;52.446;13.280;2022-08-04T06:02:37;22.60;99.90
26262;DHT22;13988;52.446;13.280;2022-08-04T06:05:07;22.70;99.90
26262;DHT22;13988;52.446;13.280;2022-08-04T06:07:33;22.80;99.90
26262;DHT22;13988;52.446;13.280;2022-08-04T06:09:59;23.00;99.90
26262;DHT22;13988;52.446;13.280;2022-08-04T06:12:31;23.30;99.90
26262;DHT22;13988;52.446;13.280;2022-08-04T06:14:59;23.70;99.90
26262;DHT22;13988;52.446;13.280;2022-08-04T06:23:38;29.90;97.50
26262;DHT22;13988;52.446;13.280;2022-08-04T06:26:05;31.00;91.50
26262;DHT22;13988;52.446;13.280;2022-08-04T06:28:34;32.00;84.80
26262;DHT22;13988;52.446;13.280;2022-08-04T06:31:01;32.80;78.40
26262;DHT22;13988;52.446;13.280;2022-08-04T06:33:30;33.40;72.80
26262;DHT22;13988;52.446;13.280;2022-08-04T06:36:05;33.20;68.60
26262;DHT22;13988;52.446;13.280;2022-08-04T06:38:32;32.60;67.20
26262;DHT22;13988;52.446;13.280;2022-08-04T06:41:00;34.20;68.10
26262;DHT22;13988;52.446;13.280;2022-08-04T06:43:28;33.90;63.20
26262;DHT22;13988;52.446;13.280;2022-08-04T06:46:03;34.00;64.20
26262;DHT22;13988;52.446;13.280;2022-08-04T06:48:36;35.20;58.80
26262;DHT22;13988;52.446;13.280;2022-08-04T06:51:02;35.70;58.90
26262;DHT22;13988;52.446;13.280;2022-08-04T06:53:28;34.60;59.10
26262;DHT22;13988;52.446;13.280;2022-08-04T06:55:56;33.50;60.50
26262;DHT22;13988;52.446;13.280;2022-08-04T06:58:43;33.30;59.80
26262;DHT22;13988;52.446;13.280;2022-08-04T07:01:10;35.10;57.10
26262;DHT22;13988;52.446;13.280;2022-08-04T07:03:37;35.50;56.60
26262;DHT22;13988;52.446;13.280;2022-08-04T07:06:03;34.50;54.90
26262;DHT22;13988;52.446;13.280;2022-08-04T07:08:29;35.50;55.50
26262;DHT22;13988;52.446;13.280;2022-08-04T07:10:56;35.40;53.20
26262;DHT22;13988;52.446;13.280;2022-08-04T07:13:45;35.70;54.10
26262;DHT22;13988;52.446;13.280;2022-08-04T07:16:12;36.70;52.50
26262;DHT22;13988;52.446;13.280;2022-08-04T07:18:39;36.40;52.30
26262;DHT22;13988;52.446;13.280;2022-08-04T07:21:05;37.40;52.40
26262;DHT22;13988;52.446;13.280;2022-08-04T07:23:32;37.30;51.10
26262;DHT22;13988;52.446;13.280;2022-08-04T07:25:58;36.60;51.10
26262;DHT22;13988;52.446;13.280;2022-08-04T07:28:27;37.60;50.20
26262;DHT22;13988;52.446;13.280;2022-08-04T07:30:55;37.90;49.30
26262;DHT22;13988;52.446;13.280;2022-08-04T07:33:22;37.40;48.50
26262;DHT22;13988;52.446;13.280;2022-08-04T07:35:51;37.40;49.50
26262;DHT22;13988;52.446;13.280;2022-08-04T07:38:17;37.00;49.70
26262;DHT22;13988;52.446;13.280;2022-08-04T07:40:43;37.00;48.00
26262;DHT22;13988;52.446;13.280;2022-08-04T07:43:10;37.30;48.30
26262;DHT22;13988;52.446;13.280;2022-08-04T07:45:36;37.00;48.90
26262;DHT22;13988;52.446;13.280;2022-08-04T07:48:02;37.40;49.30
26262;DHT22;13988;52.446;13.280;2022-08-04T07:50:30;37.40;48.40
26262;DHT22;13988;52.446;13.280;2022-08-04T07:52:56;37.70;47.20
26262;DHT22;13988;52.446;13.280;2022-08-04T07:55:22;36.50;47.80
26262;DHT22;13988;52.446;13.280;2022-08-04T07:57:54;36.90;47.30
26262;DHT22;13988;52.446;13.280;2022-08-04T08:00:28;35.30;48.30
26262;DHT22;13988;52.446;13.280;2022-08-04T08:02:55;35.30;50.00
26262;DHT22;13988;52.446;13.280;2022-08-04T08:05:21;34.00;51.40
26262;DHT22;13988;52.446;13.280;2022-08-04T08:07:50;32.70;53.40
26262;DHT22;13988;52.446;13.280;2022-08-04T08:10:17;32.30;54.50
26262;DHT22;13988;52.446;13.280;2022-08-04T08:12:43;31.80;55.90
26262;DHT22;13988;52.446;13.280;2022-08-04T08:15:11;31.30;56.70
26262;DHT22;13988;52.446;13.280;2022-08-04T08:17:40;31.20;56.00
26262;DHT22;13988;52.446;13.280;2022-08-04T08:20:07;30.90;58.20
26262;DHT22;13988;52.446;13.280;2022-08-04T08:22:33;31.10;58.90
26262;DHT22;13988;52.446;13.280;2022-08-04T08:25:00;31.10;59.00
26262;DHT22;13988;52.446;13.280;2022-08-04T08:27:26;31.00;58.30
26262;DHT22;13988;52.446;13.280;2022-08-04T08:29:52;30.90;57.50
26262;DHT22;13988;52.446;13.280;2022-08-04T08:32:18;31.40;58.80
26262;DHT22;13988;52.446;13.280;2022-08-04T08:34:44;31.20;57.80
26262;DHT22;13988;52.446;13.280;2022-08-04T08:40:23;31.60;57.20
26262;DHT22;13988;52.446;13.280;2022-08-04T08:43:41;31.50;57.50
26262;DHT22;13988;52.446;13.280;2022-08-04T08:49:23;31.60;58.30
26262;DHT22;13988;52.446;13.280;2022-08-04T08:55:16;31.50;58.30
26262;DHT22;13988;52.446;13.280;2022-08-04T09:01:06;31.60;56.40
26262;DHT22;13988;52.446;13.280;2022-08-04T09:04:13;31.90;57.40
26262;DHT22;13988;52.446;13.280;2022-08-04T09:06:55;31.80;56.60
26262;DHT22;13988;52.446;13.280;2022-08-04T09:12:27;32.00;56.50
26262;DHT22;13988;52.446;13.280;2022-08-04T09:15:04;32.00;56.70
26262;DHT22;13988;52.446;13.280;2022-08-04T09:20:24;31.80;57.00
26262;DHT22;13988;52.446;13.280;2022-08-04T09:23:03;32.30;54.30
26262;DHT22;13988;52.446;13.280;2022-08-04T09:28:23;32.40;53.40
26262;DHT22;13988;52.446;13.280;2022-08-04T09:31:15;32.50;55.10
26262;DHT22;13988;52.446;13.280;2022-08-04T09:33:54;32.40;55.90
26262;DHT22;13988;52.446;13.280;2022-08-04T09:36:50;32.70;53.30
26262;DHT22;13988;52.446;13.280;2022-08-04T09:39:32;32.60;53.60
26262;DHT22;13988;52.446;13.280;2022-08-04T09:42:17;32.70;55.40
26262;DHT22;13988;52.446;13.280;2022-08-04T09:44:59;32.20;56.10
26262;DHT22;13988;52.446;13.280;2022-08-04T09:50:26;32.30;55.10
26262;DHT22;13988;52.446;13.280;2022-08-04T09:59:05;32.60;55.90
26262;DHT22;13988;52.446;13.280;2022-08-04T10:01:15;32.90;54.20
26262;DHT22;13988;52.446;13.280;2022-08-04T10:10:19;33.00;52.90
26262;DHT22;13988;52.446;13.280;2022-08-04T10:15:42;33.30;52.20
26262;DHT22;13988;52.446;13.280;2022-08-04T10:21:07;33.30;53.90
26262;DHT22;13988;52.446;13.280;2022-08-04T10:24:06;33.30;52.70
26262;DHT22;13988;52.446;13.280;2022-08-04T10:26:44;33.00;53.20
26262;DHT22;13988;52.446;13.280;2022-08-04T10:29:23;32.90;53.20
26262;DHT22;13988;52.446;13.280;2022-08-04T10:32:16;33.20;53.00
26262;DHT22;13988;52.446;13.280;2022-08-04T10:34:58;33.30;53.10
26262;DHT22;13988;52.446;13.280;2022-08-04T10:40:39;33.70;51.90
26262;DHT22;13988;52.446;13.280;2022-08-04T10:45:54;33.60;52.40
26262;DHT22;13988;52.446;13.280;2022-08-04T10:55:01;33.70;52.20
26262;DHT22;13988;52.446;13.280;2022-08-04T10:57:36;33.70;50.60
26262;DHT22;13988;52.446;13.280;2022-08-04T11:00:12;33.80;51.70
26262;DHT22;13988;52.446;13.280;2022-08-04T11:02:52;33.70;50.60
26262;DHT22;13988;52.446;13.280;2022-08-04T11:05:38;33.80;51.10
26262;DHT22;13988;52.446;13.280;2022-08-04T11:08:13;33.90;50.30
26262;DHT22;13988;52.446;13.280;2022-08-04T11:11:17;34.20;49.80
26262;DHT22;13988;52.446;13.280;2022-08-04T11:13:44;34.40;49.60
26262;DHT22;13988;52.446;13.280;2022-08-04T11:16:24;34.50;50.60
26262;DHT22;13988;52.446;13.280;2022-08-04T11:19:15;35.00;48.70
26262;DHT22;13988;52.446;13.280;2022-08-04T11:21:46;34.50;48.30
26262;DHT22;13988;52.446;13.280;2022-08-04T11:24:18;34.50;49.40
26262;DHT22;13988;52.446;13.280;2022-08-04T11:26:48;35.20;48.10
26262;DHT22;13988;52.446;13.280;2022-08-04T11:29:50;35.50;49.00
26262;DHT22;13988;52.446;13.280;2022-08-04T11:33:26;35.10;47.10
26262;DHT22;13988;52.446;13.280;2022-08-04T11:35:41;35.40;48.00
26262;DHT22;13988;52.446;13.280;2022-08-04T11:38:58;36.00;45.90
26262;DHT22;13988;52.446;13.280;2022-08-04T11:41:02;36.70;45.40
26262;DHT22;13988;52.446;13.280;2022-08-04T11:44:00;35.80;46.20
26262;DHT22;13988;52.446;13.280;2022-08-04T11:49:25;35.80;46.80
26262;DHT22;13988;52.446;13.280;2022-08-04T11:51:52;35.60;46.50
26262;DHT22;13988;52.446;13.280;2022-08-04T11:54:20;35.50;48.40
26262;DHT22;13988;52.446;13.280;2022-08-04T11:56:49;36.50;45.70
26262;DHT22;13988;52.446;13.280;2022-08-04T11:59:16;36.10;47.10
26262;DHT22;13988;52.446;13.280;2022-08-04T12:04:59;35.90;45.10
26262;DHT22;13988;52.446;13.280;2022-08-04T12:07:46;36.20;45.50
26262;DHT22;13988;52.446;13.280;2022-08-04T12:10:29;37.20;44.80
26262;DHT22;13988;52.446;13.280;2022-08-04T12:13:08;36.90;43.10
26262;DHT22;13988;52.446;13.280;2022-08-04T12:18:23;37.70;41.70
26262;DHT22;13988;52.446;13.280;2022-08-04T12:21:06;38.10;41.50
26262;DHT22;13988;52.446;13.280;2022-08-04T12:23:37;37.40;42.20
26262;DHT22;13988;52.446;13.280;2022-08-04T12:26:06;38.10;41.10
26262;DHT22;13988;52.446;13.280;2022-08-04T12:28:40;38.40;40.40
26262;DHT22;13988;52.446;13.280;2022-08-04T12:31:35;38.40;39.50
26262;DHT22;13988;52.446;13.280;2022-08-04T12:34:31;38.50;39.40
26262;DHT22;13988;52.446;13.280;2022-08-04T12:37:06;37.60;39.70
26262;DHT22;13988;52.446;13.280;2022-08-04T12:39:35;37.50;39.70
26262;DHT22;13988;52.446;13.280;2022-08-04T12:42:26;37.60;39.70
26262;DHT22;13988;52.446;13.280;2022-08-04T12:44:54;37.60;38.50
26262;DHT22;13988;52.446;13.280;2022-08-04T12:47:25;37.60;38.10
26262;DHT22;13988;52.446;13.280;2022-08-04T12:49:53;38.10;39.50
26262;DHT22;13988;52.446;13.280;2022-08-04T12:52:20;38.50;37.90
26262;DHT22;13988;52.446;13.280;2022-08-04T12:54:52;38.00;38.10
26262;DHT22;13988;52.446;13.280;2022-08-04T12:57:20;37.20;38.90
26262;DHT22;13988;52.446;13.280;2022-08-04T12:59:46;37.40;39.40
26262;DHT22;13988;52.446;13.280;2022-08-04T13:02:29;37.20;39.10
26262;DHT22;13988;52.446;13.280;2022-08-04T13:04:59;37.30;39.00
26262;DHT22;13988;52.446;13.280;2022-08-04T13:07:27;37.30;39.40
26262;DHT22;13988;52.446;13.280;2022-08-04T13:10:02;37.10;38.90
26262;DHT22;13988;52.446;13.280;2022-08-04T13:12:30;37.00;37.90
26262;DHT22;13988;52.446;13.280;2022-08-04T13:15:05;37.30;39.20
26262;DHT22;13988;52.446;13.280;2022-08-04T13:17:57;37.00;38.60
26262;DHT22;13988;52.446;13.280;2022-08-04T13:20:42;37.70;38.30
26262;DHT22;13988;52.446;13.280;2022-08-04T13:23:19;38.20;39.20
26262;DHT22;13988;52.446;13.280;2022-08-04T13:25:47;37.90;39.10
26262;DHT22;13988;52.446;13.280;2022-08-04T13:28:24;37.60;38.90
26262;DHT22;13988;52.446;13.280;2022-08-04T13:30:58;37.10;38.50
26262;DHT22;13988;52.446;13.280;2022-08-04T13:33:32;37.40;38.80
26262;DHT22;13988;52.446;13.280;2022-08-04T13:35:59;37.50;39.20
26262;DHT22;13988;52.446;13.280;2022-08-04T13:38:26;37.40;37.30
26262;DHT22;13988;52.446;13.280;2022-08-04T13:41:03;37.40;37.70
26262;DHT22;13988;52.446;13.280;2022-08-04T13:43:32;37.70;38.30
26262;DHT22;13988;52.446;13.280;2022-08-04T13:46:03;37.50;36.70
26262;DHT22;13988;52.446;13.280;2022-08-04T13:48:35;37.70;36.70
26262;DHT22;13988;52.446;13.280;2022-08-04T13:51:06;37.90;38.20
26262;DHT22;13988;52.446;13.280;2022-08-04T13:53:34;38.50;37.00
26262;DHT22;13988;52.446;13.280;2022-08-04T13:56:02;38.40;36.40
26262;DHT22;13988;52.446;13.280;2022-08-04T13:58:32;38.00;37.20
26262;DHT22;13988;52.446;13.280;2022-08-04T14:01:14;37.90;36.90
26262;DHT22;13988;52.446;13.280;2022-08-04T14:04:08;38.00;36.20
26262;DHT22;13988;52.446;13.280;2022-08-04T14:07:02;37.80;36.20
26262;DHT22;13988;52.446;13.280;2022-08-04T14:09:31;37.90;35.50
26262;DHT22;13988;52.446;13.280;2022-08-04T14:12:11;38.40;36.20
26262;DHT22;13988;52.446;13.280;2022-08-04T14:14:48;38.00;34.20
26262;DHT22;13988;52.446;13.280;2022-08-04T14:17:18;38.10;35.90
26262;DHT22;13988;52.446;13.280;2022-08-04T14:19:55;38.00;35.40
26262;DHT22;13988;52.446;13.280;2022-08-04T14:22:28;37.90;35.70
26262;DHT22;13988;52.446;13.280;2022-08-04T14:25:15;37.50;35.30
26262;DHT22;13988;52.446;13.280;2022-08-04T14:28:03;37.60;36.00
26262;DHT22;13988;52.446;13.280;2022-08-04T14:30:36;37.70;35.80
26262;DHT22;13988;52.446;13.280;2022-08-04T14:33:09;38.00;36.70
26262;DHT22;13988;52.446;13.280;2022-08-04T14:35:35;37.30;35.70
26262;DHT22;13988;52.446;13.280;2022-08-04T14:38:12;37.40;36.80
26262;DHT22;13988;52.446;13.280;2022-08-04T14:40:39;36.90;37.90
26262;DHT22;13988;52.446;13.280;2022-08-04T14:43:07;36.40;38.10
26262;DHT22;13988;52.446;13.280;2022-08-04T14:45:38;36.60;37.80
26262;DHT22;13988;52.446;13.280;2022-08-04T14:48:09;36.90;37.70
26262;DHT22;13988;52.446;13.280;2022-08-04T14:53:13;36.80;37.80
26262;DHT22;13988;52.446;13.280;2022-08-04T14:55:44;36.80;38.20
26262;DHT22;13988;52.446;13.280;2022-08-04T14:58:18;36.50;37.40
26262;DHT22;13988;52.446;13.280;2022-08-04T15:00:45;36.50;37.20
26262;DHT22;13988;52.446;13.280;2022-08-04T15:03:11;36.70;37.60
26262;DHT22;13988;52.446;13.280;2022-08-04T15:05:38;36.90;37.50
26262;DHT22;13988;52.446;13.280;2022-08-04T15:08:05;36.80;37.20
26262;DHT22;13988;52.446;13.280;2022-08-04T15:10:31;36.90;38.60
26262;DHT22;13988;52.446;13.280;2022-08-04T15:12:57;36.70;37.40
26262;DHT22;13988;52.446;13.280;2022-08-04T15:15:23;36.70;37.70
26262;DHT22;13988;52.446;13.280;2022-08-04T15:17:51;36.50;37.70
26262;DHT22;13988;52.446;13.280;2022-08-04T15:20:18;36.10;38.70
26262;DHT22;13988;52.446;13.280;2022-08-04T15:22:44;35.60;39.90
26262;DHT22;13988;52.446;13.280;2022-08-04T15:25:12;35.90;40.10
26262;DHT22;13988;52.446;13.280;2022-08-04T15:27:48;36.50;39.00
26262;DHT22;13988;52.446;13.280;2022-08-04T15:30:16;36.50;38.40
26262;DHT22;13988;52.446;13.280;2022-08-04T15:32:47;36.40;38.80
26262;DHT22;13988;52.446;13.280;2022-08-04T15:35:19;36.70;38.80
26262;DHT22;13988;52.446;13.280;2022-08-04T15:38:01;36.30;39.00
26262;DHT22;13988;52.446;13.280;2022-08-04T15:40:39;36.30;40.10
26262;DHT22;13988;52.446;13.280;2022-08-04T15:53:03;36.20;40.20
26262;DHT22;13988;52.446;13.280;2022-08-04T15:55:40;36.20;39.70
26262;DHT22;13988;52.446;13.280;2022-08-04T15:58:15;36.40;39.80
26262;DHT22;13988;52.446;13.280;2022-08-04T16:09:03;35.60;40.10
26262;DHT22;13988;52.446;13.280;2022-08-04T16:16:32;35.50;41.10
26262;DHT22;13988;52.446;13.280;2022-08-04T16:21:52;35.70;40.40
26262;DHT22;13988;52.446;13.280;2022-08-04T16:24:46;35.70;39.80
26262;DHT22;13988;52.446;13.280;2022-08-04T16:27:37;35.60;40.60
26262;DHT22;13988;52.446;13.280;2022-08-04T16:30:05;35.50;40.60
26262;DHT22;13988;52.446;13.280;2022-08-04T16:32:42;35.40;41.10
26262;DHT22;13988;52.446;13.280;2022-08-04T16:35:23;35.50;41.60
26262;DHT22;13988;52.446;13.280;2022-08-04T16:38:11;35.40;40.40
26262;DHT22;13988;52.446;13.280;2022-08-04T16:40:38;35.30;40.90
26262;DHT22;13988;52.446;13.280;2022-08-04T16:43:16;35.20;41.10
26262;DHT22;13988;52.446;13.280;2022-08-04T16:45:43;35.20;40.70
26262;DHT22;13988;52.446;13.280;2022-08-04T16:48:11;35.20;42.10
26262;DHT22;13988;52.446;13.280;2022-08-04T16:50:55;34.90;43.00
26262;DHT22;13988;52.446;13.280;2022-08-04T16:53:39;34.90;42.20
26262;DHT22;13988;52.446;13.280;2022-08-04T16:56:05;34.90;41.10
26262;DHT22;13988;52.446;13.280;2022-08-04T16:58:33;34.80;42.00
26262;DHT22;13988;52.446;13.280;2022-08-04T17:01:06;34.70;42.30
26262;DHT22;13988;52.446;13.280;2022-08-04T17:03:33;34.60;41.30
26262;DHT22;13988;52.446;13.280;2022-08-04T17:06:13;34.70;41.70
26262;DHT22;13988;52.446;13.280;2022-08-04T17:08:40;34.60;41.30
26262;DHT22;13988;52.446;13.280;2022-08-04T17:11:07;34.60;41.30
26262;DHT22;13988;52.446;13.280;2022-08-04T17:13:39;34.60;41.10
26262;DHT22;13988;52.446;13.280;2022-08-04T17:16:09;34.50;41.50
26262;DHT22;13988;52.446;13.280;2022-08-04T17:18:37;34.40;42.20
26262;DHT22;13988;52.446;13.280;2022-08-04T17:21:09;34.20;42.30
26262;DHT22;13988;52.446;13.280;2022-08-04T17:23:41;34.20;43.30
26262;DHT22;13988;52.446;13.280;2022-08-04T17:26:11;34.10;42.20
26262;DHT22;13988;52.446;13.280;2022-08-04T17:28:38;34.00;44.70
26262;DHT22;13988;52.446;13.280;2022-08-04T17:31:06;33.80;46.30
26262;DHT22;13988;52.446;13.280;2022-08-04T17:33:34;33.60;45.60
26262;DHT22;13988;52.446;13.280;2022-08-04T17:36:01;33.40;48.40
26262;DHT22;13988;52.446;13.280;2022-08-04T17:38:31;33.10;48.60
26262;DHT22;13988;52.446;13.280;2022-08-04T17:41:02;33.00;47.30
26262;DHT22;13988;52.446;13.280;2022-08-04T17:43:35;33.20;45.20
26262;DHT22;13988;52.446;13.280;2022-08-04T17:46:45;33.20;45.60
26262;DHT22;13988;52.446;13.280;2022-08-04T17:54:15;32.50;50.50
26262;DHT22;13988;52.446;13.280;2022-08-04T17:56:43;32.50;51.50
26262;DHT22;13988;52.446;13.280;2022-08-04T17:59:21;32.50;51.30
26262;DHT22;13988;52.446;13.280;2022-08-04T18:07:14;32.00;53.70
26262;DHT22;13988;52.446;13.280;2022-08-04T18:09:51;31.70;53.80
26262;DHT22;13988;52.446;13.280;2022-08-04T18:15:20;31.60;56.10
26262;DHT22;13988;52.446;13.280;2022-08-04T18:17:47;31.30;56.20
26262;DHT22;13988;52.446;13.280;2022-08-04T18:20:17;31.30;56.60
26262;DHT22;13988;52.446;13.280;2022-08-04T18:22:47;31.20;57.50
26262;DHT22;13988;52.446;13.280;2022-08-04T18:25:16;31.00;57.80
26262;DHT22;13988;52.446;13.280;2022-08-04T18:27:47;30.80;57.80
26262;DHT22;13988;52.446;13.280;2022-08-04T18:30:13;30.80;58.40
26262;DHT22;13988;52.446;13.280;2022-08-04T18:32:39;30.60;58.90
26262;DHT22;13988;52.446;13.280;2022-08-04T18:35:06;30.50;59.40
26262;DHT22;13988;52.446;13.280;2022-08-04T18:37:32;30.40;59.40
26262;DHT22;13988;52.446;13.280;2022-08-04T18:39:58;30.30;59.80
26262;DHT22;13988;52.446;13.280;2022-08-04T18:42:23;30.30;60.60
26262;DHT22;13988;52.446;13.280;2022-08-04T18:44:52;30.10;60.50
26262;DHT22;13988;52.446;13.280;2022-08-04T18:47:21;29.90;61.80
26262;DHT22;13988;52.446;13.280;2022-08-04T18:49:50;29.90;61.70
26262;DHT22;13988;52.446;13.280;2022-08-04T18:52:16;29.80;61.80
26262;DHT22;13988;52.446;13.280;2022-08-04T18:54:42;29.70;62.10
26262;DHT22;13988;52.446;13.280;2022-08-04T18:57:07;29.60;62.60
26262;DHT22;13988;52.446;13.280;2022-08-04T18:59:42;29.50;63.40
26262;DHT22;13988;52.446;13.280;2022-08-04T19:02:08;29.40;63.50
26262;DHT22;13988;52.446;13.280;2022-08-04T19:04:34;29.40;64.10
26262;DHT22;13988;52.446;13.280;2022-08-04T19:06:59;29.20;64.40
26262;DHT22;13988;52.446;13.280;2022-08-04T19:09:25;29.20;65.30
26262;DHT22;13988;52.446;13.280;2022-08-04T19:11:51;29.00;65.50
26262;DHT22;13988;52.446;13.280;2022-08-04T19:14:17;29.00;66.10
26262;DHT22;13988;52.446;13.280;2022-08-04T19:16:51;28.90;66.80
26262;DHT22;13988;52.446;13.280;2022-08-04T19:19:17;29.00;67.10
26262;DHT22;13988;52.446;13.280;2022-08-04T19:21:44;28.90;67.30
26262;DHT22;13988;52.446;13.280;2022-08-04T19:24:10;28.70;68.20
26262;DHT22;13988;52.446;13.280;2022-08-04T19:26:39;28.60;68.90
26262;DHT22;13988;52.446;13.280;2022-08-04T19:29:11;28.60;69.80
26262;DHT22;13988;52.446;13.280;2022-08-04T19:31:39;28.60;69.50
26262;DHT22;13988;52.446;13.280;2022-08-04T19:34:17;28.50;70.30